createdAt,value
2018-04-23T00:00:09.370Z,95390.13
2018-04-23T00:02:36.942Z,95383.21
2018-04-23T00:05:04.473Z,95380.11
2018-04-23T00:07:32.048Z,95380.79
2018-04-23T00:09:59.587Z,95378.59
2018-04-23T00:12:27.177Z,95376.92
2018-04-23T00:14:54.750Z,95379.12
2018-04-23T00:17:22.283Z,95382.69
2018-04-23T00:19:49.864Z,95387.36
2018-04-23T00:22:17.449Z,95383.38
2018-04-23T00:24:44.991Z,95373.77
2018-04-23T00:27:12.559Z,95373.84
2018-04-23T00:29:40.093Z,95379.20
2018-04-23T00:32:07.628Z,95373.42
2018-04-23T00:34:35.163Z,95378.77
2018-04-23T00:37:02.713Z,95378.17
2018-04-23T00:39:30.255Z,95377.73
2018-04-23T00:41:57.785Z,95367.45
2018-04-23T00:44:25.332Z,95364.42
2018-04-23T00:46:52.887Z,95362.45
2018-04-23T00:49:20.438Z,95371.27
2018-04-23T00:51:47.969Z,95378.59
2018-04-23T00:54:15.512Z,95367.45
2018-04-23T00:56:43.043Z,95380.05
2018-04-23T00:59:10.572Z,95386.41
2018-04-23T01:01:38.099Z,95377.86
2018-04-23T01:04:05.626Z,95380.61
2018-04-23T01:06:33.159Z,95381.41
2018-04-23T01:09:00.731Z,95381.08
2018-04-23T01:11:28.261Z,95366.49
2018-04-23T01:13:55.784Z,95384.25
2018-04-23T01:16:24.217Z,95379.66
2018-04-23T01:18:51.790Z,95386.60
2018-04-23T01:21:19.328Z,95381.34
2018-04-23T01:23:46.873Z,95375.05
2018-04-23T01:26:14.416Z,95371.78
2018-04-23T01:28:41.963Z,95398.58
2018-04-23T01:31:09.540Z,95386.20
2018-04-23T01:33:37.075Z,95386.37
2018-04-23T01:36:04.636Z,95388.63
2018-04-23T01:38:32.202Z,95384.50
2018-04-23T01:40:59.748Z,95384.52
2018-04-23T01:43:27.290Z,95387.81
2018-04-23T01:45:54.818Z,95385.42
2018-04-23T01:48:22.347Z,95385.45
2018-04-23T01:50:54.077Z,95382.60
2018-04-23T01:53:21.700Z,95381.64
2018-04-23T01:55:49.281Z,95374.64
2018-04-23T01:58:16.851Z,95373.59
2018-04-23T02:00:44.415Z,95356.53
2018-04-23T02:03:11.943Z,95391.08
2018-04-23T02:05:39.471Z,95399.10
2018-04-23T02:08:07.055Z,95392.18
2018-04-23T02:10:34.584Z,95398.19
2018-04-23T02:13:02.576Z,95404.52
2018-04-23T02:15:30.103Z,95402.09
2018-04-23T02:17:57.668Z,95396.66
2018-04-23T02:20:25.204Z,95386.38
2018-04-23T02:22:52.831Z,95397.87
2018-04-23T02:25:20.343Z,95399.13
2018-04-23T02:27:47.886Z,95403.58
2018-04-23T02:30:15.467Z,95401.74
2018-04-23T02:32:43.000Z,95398.25
2018-04-23T02:35:10.580Z,95396.58
2018-04-23T02:37:38.143Z,95402.58
2018-04-23T02:40:05.720Z,95396.61
2018-04-23T02:42:34.033Z,95401.24
2018-04-23T02:45:02.528Z,95399.78
2018-04-23T02:47:30.104Z,95403.99
2018-04-23T02:49:57.672Z,95413.72
2018-04-23T02:52:25.215Z,95405.39
2018-04-23T02:54:52.766Z,95408.88
2018-04-23T02:57:20.304Z,95407.80
2018-04-23T02:59:47.853Z,95404.77
2018-04-23T03:02:16.419Z,95408.58
2018-04-23T03:04:43.963Z,95405.44
2018-04-23T03:07:11.552Z,95411.37
2018-04-23T03:09:39.088Z,95402.80
2018-04-23T03:12:06.620Z,95401.09
2018-04-23T03:14:34.199Z,95407.69
2018-04-23T03:17:01.748Z,95417.55
2018-04-23T03:19:29.335Z,95410.72
2018-04-23T03:21:56.871Z,95408.34
2018-04-23T03:24:24.446Z,95412.77
2018-04-23T03:26:51.982Z,95417.98
2018-04-23T03:29:19.514Z,95419.00
2018-04-23T03:31:47.080Z,95417.59
2018-04-23T03:34:14.607Z,95412.56
2018-04-23T03:36:42.169Z,95426.21
2018-04-23T03:39:09.699Z,95432.65
2018-04-23T03:41:37.247Z,95434.56
2018-04-23T03:44:04.811Z,95430.73
2018-04-23T03:46:33.258Z,95433.58
2018-04-23T03:49:00.793Z,95428.00
2018-04-23T03:51:28.366Z,95425.71
2018-04-23T03:53:55.905Z,95429.53
2018-04-23T03:56:23.448Z,95435.70
2018-04-23T03:58:51.053Z,95423.69
2018-04-23T04:01:18.589Z,95441.89
2018-04-23T04:03:46.129Z,95434.73
2018-04-23T04:06:13.666Z,95434.60
2018-04-23T04:08:41.200Z,95433.60
2018-04-23T04:11:08.744Z,95434.94
2018-04-23T04:13:48.104Z,95438.62
2018-04-23T04:16:27.555Z,95435.02
2018-04-23T04:18:55.110Z,95433.89
2018-04-23T04:21:22.643Z,95439.08
2018-04-23T04:23:50.172Z,95439.14
2018-04-23T04:26:17.708Z,95437.14
2018-04-23T04:28:45.279Z,95434.97
2018-04-23T04:31:13.133Z,95438.22
2018-04-23T04:33:40.655Z,95436.56
2018-04-23T04:36:08.187Z,95442.98
2018-04-23T04:38:35.758Z,95448.25
2018-04-23T04:41:03.295Z,95453.06
2018-04-23T04:43:30.832Z,95447.77
2018-04-23T04:45:58.366Z,95456.19
2018-04-23T04:48:25.899Z,95454.34
2018-04-23T04:50:53.485Z,95445.84
2018-04-23T04:53:21.028Z,95452.04
2018-04-23T04:55:48.560Z,95464.05
2018-04-23T04:58:16.087Z,95452.13
2018-04-23T05:00:43.628Z,95449.73
2018-04-23T05:03:11.181Z,95449.13
2018-04-23T05:05:38.775Z,95462.12
2018-04-23T05:08:06.315Z,95458.47
2018-04-23T05:10:33.849Z,95458.20
2018-04-23T05:13:01.429Z,95464.09
2018-04-23T05:15:29.985Z,95456.21
2018-04-23T05:17:57.563Z,95464.36
2018-04-23T05:20:25.096Z,95459.84
2018-04-23T05:22:52.691Z,95466.11
2018-04-23T05:25:20.228Z,95464.34
2018-04-23T05:27:47.778Z,95465.53
2018-04-23T05:30:15.357Z,95469.91
2018-04-23T05:32:42.898Z,95459.06
2018-04-23T05:35:10.479Z,95448.13
2018-04-23T05:37:38.021Z,95467.89
2018-04-23T05:40:05.563Z,95467.02
2018-04-23T05:42:33.142Z,95463.38
2018-04-23T05:45:00.690Z,95465.98
2018-04-23T05:47:28.232Z,95463.35
2018-04-23T05:49:55.828Z,95461.44
2018-04-23T05:52:23.415Z,95467.23
2018-04-23T05:54:50.962Z,95465.98
2018-04-23T05:57:18.497Z,95462.15
2018-04-23T05:59:46.077Z,95460.75
2018-04-23T06:02:14.128Z,95464.72
2018-04-23T06:04:42.001Z,95455.18
2018-04-23T06:07:09.534Z,95457.09
2018-04-23T06:09:37.076Z,95455.95
2018-04-23T06:12:04.607Z,95455.30
2018-04-23T06:14:32.139Z,95449.44
2018-04-23T06:16:59.675Z,95455.06
2018-04-23T06:19:27.217Z,95448.51
2018-04-23T06:21:54.842Z,95445.77
2018-04-23T06:24:22.424Z,95445.96
2018-04-23T06:26:49.973Z,95448.45
2018-04-23T06:29:17.564Z,95447.73
2018-04-23T06:31:45.104Z,95445.05
2018-04-23T06:34:12.681Z,95447.34
2018-04-23T06:36:40.238Z,95448.16
2018-04-23T06:39:07.778Z,95447.14
2018-04-23T06:41:35.343Z,95441.44
2018-04-23T06:44:02.877Z,95444.34
2018-04-23T06:46:30.443Z,95443.61
2018-04-23T06:48:58.244Z,95453.37
2018-04-23T06:51:25.784Z,95450.44
2018-04-23T06:53:53.355Z,95448.80
2018-04-23T06:56:20.912Z,95444.77
2018-04-23T06:58:48.534Z,95446.40
2018-04-23T07:01:16.111Z,95446.30
2018-04-23T07:03:43.713Z,95444.51
2018-04-23T07:06:11.260Z,95449.33
2018-04-23T07:08:38.836Z,95445.41
2018-04-23T07:11:06.380Z,95448.98
2018-04-23T07:13:33.978Z,95451.78
2018-04-23T07:16:01.542Z,95450.30
2018-04-23T07:18:29.096Z,95446.43
2018-04-23T07:20:56.671Z,95457.33
2018-04-23T07:23:24.259Z,95452.01
2018-04-23T07:25:51.811Z,95456.42
2018-04-23T07:28:19.348Z,95461.08
2018-04-23T07:30:46.917Z,95459.19
2018-04-23T07:33:14.471Z,95452.83
2018-04-23T07:35:42.014Z,95456.97
2018-04-23T07:38:09.571Z,95458.35
2018-04-23T07:40:37.154Z,95464.97
2018-04-23T07:43:04.687Z,95468.19
2018-04-23T07:45:32.222Z,95462.24
2018-04-23T07:47:59.790Z,95463.33
2018-04-23T07:50:27.338Z,95464.51
2018-04-23T07:52:54.883Z,95464.05
2018-04-23T07:55:22.439Z,95453.37
2018-04-23T07:57:49.989Z,95460.47
2018-04-23T08:00:17.551Z,95459.73
2018-04-23T08:02:45.087Z,95462.45
2018-04-23T08:05:12.618Z,95459.09
2018-04-23T08:07:40.155Z,95464.71
2018-04-23T08:10:07.733Z,95459.50
2018-04-23T08:12:35.254Z,95463.10
2018-04-23T08:15:02.790Z,95456.73
2018-04-23T08:17:30.328Z,95450.05
2018-04-23T08:19:57.876Z,95455.48
2018-04-23T08:22:25.544Z,95456.20
2018-04-23T08:24:53.105Z,95456.41
2018-04-23T08:27:20.657Z,95451.78
2018-04-23T08:29:48.262Z,95449.47
2018-04-23T08:32:15.805Z,95449.02
2018-04-23T08:34:43.330Z,95446.77
2018-04-23T08:37:10.872Z,95444.37
2018-04-23T08:39:38.404Z,95438.83
2018-04-23T08:42:05.949Z,95427.78
2018-04-23T08:44:33.489Z,95443.90
2018-04-23T08:47:01.034Z,95435.98
2018-04-23T08:49:28.577Z,95428.98
2018-04-23T08:51:56.112Z,95423.12
2018-04-23T08:54:23.658Z,95427.54
2018-04-23T08:56:51.223Z,95420.27
2018-04-23T08:59:18.764Z,95424.05
2018-04-23T09:01:46.295Z,95423.42
2018-04-23T09:04:13.837Z,95416.68
2018-04-23T09:06:41.380Z,95412.98
2018-04-23T09:09:09.794Z,95415.14
2018-04-23T09:11:37.368Z,95417.47
2018-04-23T09:14:04.940Z,95410.16
2018-04-23T09:16:32.468Z,95412.38
2018-04-23T09:18:59.999Z,95406.61
2018-04-23T09:21:27.568Z,95399.16
2018-04-23T09:23:55.100Z,95394.83
2018-04-23T09:26:22.641Z,95407.89
2018-04-23T09:28:50.204Z,95398.67
2018-04-23T09:31:17.773Z,95392.89
2018-04-23T09:33:45.298Z,95388.78
2018-04-23T09:36:12.850Z,95384.33
2018-04-23T09:38:40.381Z,95379.65
2018-04-23T09:41:07.921Z,95381.28
2018-04-23T09:43:35.474Z,95393.47
2018-04-23T09:46:03.039Z,95380.70
2018-04-23T09:48:30.585Z,95385.36
2018-04-23T09:50:58.110Z,95376.69
2018-04-23T09:53:25.695Z,95369.53
2018-04-23T09:55:53.252Z,95377.33
2018-04-23T09:58:20.794Z,95372.84
2018-04-23T10:00:48.358Z,95377.64
2018-04-23T10:03:15.892Z,95366.87
2018-04-23T10:05:43.436Z,95343.49
2018-04-23T10:08:10.983Z,95366.67
2018-04-23T10:10:39.379Z,95363.05
2018-04-23T10:13:06.911Z,95358.64
2018-04-23T10:15:34.508Z,95353.75
2018-04-23T10:18:02.042Z,95351.77
2018-04-23T10:20:29.582Z,95346.05
2018-04-23T10:22:57.183Z,95347.46
2018-04-23T10:25:24.749Z,95341.49
2018-04-23T10:27:52.275Z,95335.44
2018-04-23T10:30:19.835Z,95347.51
2018-04-23T10:32:47.376Z,95339.73
2018-04-23T10:35:14.898Z,95339.55
2018-04-23T10:37:42.428Z,95337.09
2018-04-23T10:40:10.005Z,95341.47
2018-04-23T10:42:37.560Z,95333.75
2018-04-23T10:45:05.084Z,95335.42
2018-04-23T10:47:32.648Z,95328.55
2018-04-23T10:50:00.230Z,95323.70
2018-04-23T10:52:27.755Z,95322.52
2018-04-23T10:54:55.345Z,95312.58
2018-04-23T10:57:22.877Z,95314.33
2018-04-23T10:59:50.407Z,95322.84
2018-04-23T11:02:17.933Z,95316.09
2018-04-23T11:04:45.530Z,95310.73
2018-04-23T11:07:13.068Z,95312.14
2018-04-23T11:09:40.661Z,95316.50
2018-04-23T11:12:08.156Z,95301.78
2018-04-23T11:14:35.682Z,95300.52
2018-04-23T11:17:03.233Z,95306.19
2018-04-23T11:19:30.768Z,95305.92
2018-04-23T11:21:58.316Z,95302.94
2018-04-23T11:24:25.863Z,95296.36
2018-04-23T11:26:53.436Z,95303.20
2018-04-23T11:29:20.973Z,95292.55
2018-04-23T11:31:48.509Z,95295.71
2018-04-23T11:34:16.031Z,95289.93
2018-04-23T11:36:43.564Z,95294.03
2018-04-23T11:39:11.098Z,95292.52
2018-04-23T11:41:38.645Z,95292.13
2018-04-23T11:44:06.190Z,95290.17
2018-04-23T11:46:33.777Z,95284.36
2018-04-23T11:49:01.317Z,95281.64
2018-04-23T11:51:28.865Z,95282.99
2018-04-23T11:53:56.409Z,95277.66
2018-04-23T11:56:23.954Z,95276.45
2018-04-23T11:58:51.496Z,95278.00
2018-04-23T12:01:19.060Z,95259.81
2018-04-23T12:03:46.595Z,95261.24
2018-04-23T12:06:14.392Z,95262.88
2018-04-23T12:08:41.944Z,95258.84
2018-04-23T12:11:09.735Z,95252.78
2018-04-23T12:13:37.274Z,95258.05
2018-04-23T12:16:04.863Z,95253.92
2018-04-23T12:18:32.398Z,95246.98
2018-04-23T12:20:59.949Z,95248.78
2018-04-23T12:23:27.496Z,95242.29
2018-04-23T12:25:55.048Z,95242.84
2018-04-23T12:28:22.626Z,95244.99
2018-04-23T12:30:50.165Z,95238.19
2018-04-23T12:33:17.741Z,95232.21
2018-04-23T12:35:45.285Z,95222.47
2018-04-23T12:38:12.869Z,95218.67
2018-04-23T12:40:40.401Z,95221.72
2018-04-23T12:43:07.944Z,95224.26
2018-04-23T12:45:35.474Z,95220.78
2018-04-23T12:48:03.018Z,95208.63
2018-04-23T12:50:30.598Z,95219.25
2018-04-23T12:52:58.127Z,95212.77
2018-04-23T12:55:25.654Z,95218.75
2018-04-23T12:57:53.252Z,95209.87
2018-04-23T13:00:20.815Z,95207.77
2018-04-23T13:02:48.386Z,95205.63
2018-04-23T13:05:16.400Z,95207.31
2018-04-23T13:07:44.001Z,95206.13
2018-04-23T13:10:11.540Z,95201.17
2018-04-23T13:12:39.079Z,95194.01
2018-04-23T13:15:06.657Z,95195.98
2018-04-23T13:17:34.208Z,95194.05
2018-04-23T13:20:01.825Z,95193.92
2018-04-23T13:22:29.391Z,95197.40
2018-04-23T13:24:56.979Z,95185.16
2018-04-23T13:27:24.522Z,95192.82
2018-04-23T13:29:52.048Z,95186.34
2018-04-23T13:32:19.580Z,95186.25
2018-04-23T13:34:48.159Z,95189.38
2018-04-23T13:37:15.718Z,95176.46
2018-04-23T13:39:43.256Z,95178.36
2018-04-23T13:42:10.800Z,95179.57
2018-04-23T13:44:38.370Z,95174.01
2018-04-23T13:47:05.922Z,95167.22
2018-04-23T13:49:33.502Z,95178.13
2018-04-23T13:52:01.036Z,95169.41
2018-04-23T13:54:28.574Z,95174.12
2018-04-23T13:56:56.107Z,95170.83
2018-04-23T13:59:23.648Z,95163.73
2018-04-23T14:01:51.332Z,95167.92
2018-04-23T14:04:18.866Z,95170.08
2018-04-23T14:06:46.447Z,95166.36
2018-04-23T14:09:14.052Z,95172.80
2018-04-23T14:11:41.593Z,95171.34
2018-04-23T14:14:09.131Z,95167.88
2018-04-23T14:16:36.705Z,95167.16
2018-04-23T14:19:04.240Z,95157.67
2018-04-23T14:21:31.866Z,95168.69
2018-04-23T14:23:59.411Z,95167.11
2018-04-23T14:26:27.012Z,95166.05
2018-04-23T14:28:54.532Z,95168.05
2018-04-23T14:31:22.110Z,95167.73
2018-04-23T14:33:49.642Z,95160.11
2018-04-23T14:36:17.216Z,95163.78
2018-04-23T14:38:44.773Z,95159.41
2018-04-23T14:41:12.300Z,95160.20
2018-04-23T14:43:39.879Z,95162.94
2018-04-23T14:46:08.075Z,95159.34
2018-04-23T14:48:35.612Z,95160.27
2018-04-23T14:51:03.144Z,95169.98
2018-04-23T14:53:30.719Z,95158.46
2018-04-23T14:55:58.256Z,95156.72
2018-04-23T14:58:25.787Z,95158.04
2018-04-23T15:00:53.365Z,95161.02
2018-04-23T15:03:20.942Z,95156.50
2018-04-23T15:05:48.538Z,95155.65
2018-04-23T15:08:16.127Z,95149.39
2018-04-23T15:10:43.684Z,95156.00
2018-04-23T15:13:11.211Z,95154.97
2018-04-23T15:15:38.781Z,95160.97
2018-04-23T15:18:06.313Z,95163.64
2018-04-23T15:20:33.840Z,95156.89
2018-04-23T15:23:01.454Z,95156.55
2018-04-23T15:25:29.089Z,95158.06
2018-04-23T15:27:56.659Z,95160.83
2018-04-23T15:30:24.234Z,95163.41
2018-04-23T15:32:51.929Z,95163.59
2018-04-23T15:35:19.478Z,95156.83
2018-04-23T15:37:47.111Z,95155.78
2018-04-23T15:40:14.804Z,95164.46
2018-04-23T15:42:42.647Z,95159.31
2018-04-23T15:45:10.193Z,95173.28
2018-04-23T15:47:37.767Z,95160.16
2018-04-23T15:50:05.308Z,95167.42
2018-04-23T15:52:32.857Z,95151.90
2018-04-23T15:55:00.398Z,95168.61
2018-04-23T15:57:27.943Z,95170.78
2018-04-23T15:59:55.518Z,95171.39
2018-04-23T16:02:23.055Z,95173.94
2018-04-23T16:04:50.589Z,95179.18
2018-04-23T16:07:18.111Z,95189.48
2018-04-23T16:09:45.752Z,95184.40
2018-04-23T16:12:13.275Z,95186.24
2018-04-23T16:14:40.914Z,95187.82
2018-04-23T16:17:08.463Z,95186.52
2018-04-23T16:19:35.988Z,95182.88
2018-04-23T16:22:03.527Z,95181.63
2018-04-23T16:24:31.135Z,95189.45
2018-04-23T16:26:58.646Z,95199.44
2018-04-23T16:29:26.209Z,95194.16
2018-04-23T16:31:53.762Z,95203.41
2018-04-23T16:34:21.299Z,95207.34
2018-04-23T16:36:48.827Z,95210.49
2018-04-23T16:39:16.359Z,95211.58
2018-04-23T16:41:43.895Z,95221.28
2018-04-23T16:44:11.462Z,95217.89
2018-04-23T16:46:38.995Z,95218.69
2018-04-23T16:49:06.562Z,95219.81
2018-04-23T16:51:34.194Z,95219.31
2018-04-23T16:54:02.344Z,95225.27
2018-04-23T16:56:29.922Z,95227.66
2018-04-23T16:58:57.493Z,95235.39
2018-04-23T17:01:25.035Z,95240.78
2018-04-23T17:03:52.602Z,95240.34
2018-04-23T17:06:20.131Z,95236.87
2018-04-23T17:08:47.659Z,95241.04
2018-04-23T17:11:15.233Z,95236.84
2018-04-23T17:13:42.768Z,95246.94
2018-04-23T17:16:10.308Z,95248.81
2018-04-23T17:18:37.835Z,95245.77
2018-04-23T17:21:05.372Z,95242.22
2018-04-23T17:23:32.979Z,95252.03
2018-04-23T17:26:00.546Z,95255.91
2018-04-23T17:28:28.089Z,95266.94
2018-04-23T17:30:55.619Z,95265.94
2018-04-23T17:33:23.168Z,95267.66
2018-04-23T17:35:50.706Z,95267.41
2018-04-23T17:38:18.300Z,95280.52
2018-04-23T17:40:45.871Z,95276.06
2018-04-23T17:43:13.407Z,95278.08
2018-04-23T17:45:40.983Z,95277.92
2018-04-23T17:48:08.519Z,95284.66
2018-04-23T17:50:36.770Z,95287.55
2018-04-23T17:53:04.308Z,95288.96
2018-04-23T17:55:31.840Z,95284.28
2018-04-23T17:57:59.398Z,95292.59
2018-04-23T18:00:26.967Z,95298.23
2018-04-23T18:02:54.503Z,95296.14
2018-04-23T18:05:22.036Z,95292.55
2018-04-23T18:07:49.578Z,95295.39
2018-04-23T18:10:17.121Z,95296.64
2018-04-23T18:12:44.702Z,95300.86
2018-04-23T18:15:12.245Z,95301.52
2018-04-23T18:17:39.842Z,95304.17
2018-04-23T18:20:07.369Z,95298.18
2018-04-23T18:22:34.917Z,95309.59
2018-04-23T18:25:02.470Z,95302.22
2018-04-23T18:27:30.003Z,95313.14
2018-04-23T18:29:57.591Z,95318.78
2018-04-23T18:32:25.136Z,95312.72
2018-04-23T18:34:52.677Z,95312.24
2018-04-23T18:37:20.219Z,95313.69
2018-04-23T18:39:47.758Z,95329.84
2018-04-23T18:42:15.344Z,95315.18
2018-04-23T18:44:42.899Z,95324.39
2018-04-23T18:47:10.477Z,95326.52
2018-04-23T18:49:38.051Z,95330.48
2018-04-23T18:52:05.605Z,95332.51
2018-04-23T18:54:33.157Z,95336.52
2018-04-23T18:57:00.736Z,95331.55
2018-04-23T18:59:28.267Z,95337.78
2018-04-23T19:01:55.815Z,95336.41
2018-04-23T19:04:23.359Z,95340.20
2018-04-23T19:06:50.911Z,95343.52
2018-04-23T19:09:18.489Z,95341.91
2018-04-23T19:11:46.082Z,95344.50
2018-04-23T19:14:13.623Z,95353.16
2018-04-23T19:16:41.178Z,95350.46
2018-04-23T19:19:08.720Z,95351.09
2018-04-23T19:21:36.270Z,95351.43
2018-04-23T19:24:04.174Z,95345.14
2018-04-23T19:26:31.715Z,95353.64
2018-04-23T19:28:59.298Z,95350.42
2018-04-23T19:31:26.913Z,95362.03
2018-04-23T19:33:54.482Z,95360.25
2018-04-23T19:36:22.039Z,95344.92
2018-04-23T19:38:49.583Z,95351.52
2018-04-23T19:41:17.301Z,95349.11
2018-04-23T19:43:44.841Z,95350.68
2018-04-23T19:46:12.467Z,95359.60
2018-04-23T19:48:40.167Z,95347.66
2018-04-23T19:51:07.704Z,95357.00
2018-04-23T19:53:35.252Z,95360.75
2018-04-23T19:56:02.852Z,95362.62
2018-04-23T19:58:30.406Z,95365.83
2018-04-23T20:00:57.968Z,95364.84
2018-04-23T20:03:25.543Z,95369.33
2018-04-23T20:05:53.120Z,95369.33
2018-04-23T20:08:20.664Z,95370.08
2018-04-23T20:10:48.242Z,95371.28
2018-04-23T20:13:15.833Z,95371.68
2018-04-23T20:15:43.401Z,95372.06
2018-04-23T20:18:10.946Z,95380.52
2018-04-23T20:20:38.488Z,95367.82
2018-04-23T20:23:06.061Z,95365.48
2018-04-23T20:25:33.645Z,95373.91
2018-04-23T20:28:01.227Z,95376.45
2018-04-23T20:30:28.825Z,95361.58
2018-04-23T20:32:56.380Z,95381.94
2018-04-23T20:35:23.941Z,95377.25
2018-04-23T20:37:51.523Z,95382.16
2018-04-23T20:40:19.098Z,95372.92
2018-04-23T20:42:46.635Z,95374.51
2018-04-23T20:45:14.211Z,95380.95
2018-04-23T20:47:41.787Z,95378.80
2018-04-23T20:50:09.382Z,95384.85
2018-04-23T20:52:36.928Z,95379.56
2018-04-23T20:55:04.472Z,95386.98
2018-04-23T20:57:32.105Z,95382.48
2018-04-23T20:59:59.684Z,95380.13
2018-04-23T21:02:27.218Z,95378.92
2018-04-23T21:04:54.755Z,95387.54
2018-04-23T21:07:22.295Z,95389.66
2018-04-23T21:09:49.900Z,95394.75
2018-04-23T21:12:17.443Z,95392.38
2018-04-23T21:14:44.988Z,95394.66
2018-04-23T21:17:12.527Z,95401.10
2018-04-23T21:19:40.093Z,95407.95
2018-04-23T21:22:07.710Z,95403.63
2018-04-23T21:24:35.260Z,95407.03
2018-04-23T21:27:02.863Z,95403.57
2018-04-23T21:29:30.416Z,95413.91
2018-04-23T21:31:57.957Z,95408.06
2018-04-23T21:34:25.537Z,95413.08
2018-04-23T21:36:53.127Z,95401.48
2018-04-23T21:39:20.689Z,95414.16
2018-04-23T21:41:48.244Z,95419.80
2018-04-23T21:44:15.817Z,95419.86
2018-04-23T21:46:43.401Z,95410.72
2018-04-23T21:49:10.947Z,95411.12
2018-04-23T21:51:39.360Z,95416.55
2018-04-23T21:54:06.903Z,95417.86
2018-04-23T21:56:34.535Z,95419.13
2018-04-23T21:59:02.084Z,95420.27
2018-04-23T22:01:29.643Z,95426.63
2018-04-23T22:03:57.229Z,95424.02
2018-04-23T22:06:24.776Z,95422.47
2018-04-23T22:08:52.389Z,95429.53
2018-04-23T22:11:19.980Z,95432.75
2018-04-23T22:13:47.528Z,95429.27
2018-04-23T22:16:15.106Z,95431.20
2018-04-23T22:18:42.647Z,95433.54
2018-04-23T22:21:10.228Z,95428.48
2018-04-23T22:23:37.767Z,95428.34
2018-04-23T22:26:05.371Z,95425.79
2018-04-23T22:28:32.979Z,95423.70
2018-04-23T22:31:00.578Z,95425.25
2018-04-23T22:33:28.167Z,95431.34
2018-04-23T22:35:55.705Z,95427.35
2018-04-23T22:38:23.320Z,95419.41
2018-04-23T22:40:50.882Z,95419.33
2018-04-23T22:43:18.673Z,95422.42
2018-04-23T22:45:46.608Z,95415.59
2018-04-23T22:48:14.172Z,95417.73
2018-04-23T22:50:41.712Z,95419.30
2018-04-23T22:53:09.249Z,95430.53
2018-04-23T22:55:36.789Z,95416.09
2018-04-23T22:58:04.332Z,95422.11
2018-04-23T23:00:31.904Z,95421.73
2018-04-23T23:02:59.446Z,95416.61
2018-04-23T23:05:27.027Z,95415.92
2018-04-23T23:07:54.560Z,95409.68
2018-04-23T23:10:22.154Z,95408.05
2018-04-23T23:12:49.728Z,95412.29
2018-04-23T23:15:17.272Z,95420.14
2018-04-23T23:17:44.864Z,95416.42
2018-04-23T23:20:12.400Z,95417.71
2018-04-23T23:22:39.958Z,95422.17
2018-04-23T23:25:07.493Z,95411.38
2018-04-23T23:27:35.076Z,95411.11
2018-04-23T23:30:04.629Z,95412.95
2018-04-23T23:32:32.387Z,95412.73
2018-04-23T23:34:59.932Z,95409.49
2018-04-23T23:37:27.476Z,95418.97
2018-04-23T23:39:55.007Z,95407.82
2018-04-23T23:42:22.581Z,95410.40
2018-04-23T23:44:50.118Z,95413.83
2018-04-23T23:47:17.661Z,95417.82
2018-04-23T23:49:45.207Z,95412.34
2018-04-23T23:52:12.749Z,95416.94
2018-04-23T23:54:40.284Z,95409.16
2018-04-23T23:57:07.819Z,95411.15
2018-04-23T23:59:35.415Z,95409.77
